sensor_id;sensor_type;location;lat;lon;timestamp;pressure;altitude;pressure_sealevel;temperature;humidity
250;BME280;109;19.806;-70.704;2023-03-01T00:01:07;101743.72;;;23.45;59.27
250;BME280;109;19.806;-70.704;2023-03-01T00:03:34;101744.50;;;23.48;59.37
250;BME280;109;19.806;-70.704;2023-03-01T00:06:02;101746.75;;;23.62;59.06
250;BME280;109;19.806;-70.704;2023-03-01T00:08:29;101744.53;;;23.47;59.13
250;BME280;109;19.806;-70.704;2023-03-01T00:13:32;101751.50;;;23.52;59.00
250;BME280;109;19.806;-70.704;2023-03-01T00:15:58;101754.91;;;23.56;58.94
250;BME280;109;19.806;-70.704;2023-03-01T00:18:25;101750.50;;;23.55;58.98
250;BME280;109;19.806;-70.704;2023-03-01T00:20:55;101754.00;;;23.57;58.86
250;BME280;109;19.806;-70.704;2023-03-01T00:23:22;101755.09;;;23.51;58.85
250;BME280;109;19.806;-70.704;2023-03-01T00:25:49;101757.84;;;23.48;58.77
250;BME280;109;19.806;-70.704;2023-03-01T00:28:16;101754.31;;;23.48;58.83
250;BME280;109;19.806;-70.704;2023-03-01T00:30:42;101746.44;;;23.43;58.99
250;BME280;109;19.806;-70.704;2023-03-01T00:33:09;101749.28;;;23.39;58.98
250;BME280;109;19.806;-70.704;2023-03-01T00:35:35;101747.44;;;23.41;58.80
250;BME280;109;19.806;-70.704;2023-03-01T00:38:03;101751.16;;;23.35;59.23
250;BME280;109;19.806;-70.704;2023-03-01T00:40:32;101752.78;;;23.41;59.09
250;BME280;109;19.806;-70.704;2023-03-01T00:43:00;101745.19;;;23.27;59.43
250;BME280;109;19.806;-70.704;2023-03-01T00:45:27;101749.16;;;23.42;59.03
250;BME280;109;19.806;-70.704;2023-03-01T00:47:55;101751.69;;;23.46;59.03
250;BME280;109;19.806;-70.704;2023-03-01T00:50:21;101752.69;;;23.42;58.82
250;BME280;109;19.806;-70.704;2023-03-01T00:52:52;101757.03;;;23.46;59.12
250;BME280;109;19.806;-70.704;2023-03-01T00:55:19;101759.09;;;23.38;58.90
250;BME280;109;19.806;-70.704;2023-03-01T00:57:46;101765.19;;;23.42;58.84
250;BME280;109;19.806;-70.704;2023-03-01T01:00:14;101772.13;;;23.19;59.34
250;BME280;109;19.806;-70.704;2023-03-01T01:02:41;101772.19;;;23.18;59.40
250;BME280;109;19.806;-70.704;2023-03-01T01:05:14;101774.38;;;23.33;58.99
250;BME280;109;19.806;-70.704;2023-03-01T01:07:41;101771.13;;;23.23;59.50
250;BME280;109;19.806;-70.704;2023-03-01T01:10:14;101771.22;;;23.20;59.47
250;BME280;109;19.806;-70.704;2023-03-01T01:12:46;101770.25;;;23.23;59.45
250;BME280;109;19.806;-70.704;2023-03-01T01:15:19;101773.13;;;23.15;59.70
250;BME280;109;19.806;-70.704;2023-03-01T01:17:45;101771.22;;;23.20;59.35
250;BME280;109;19.806;-70.704;2023-03-01T01:20:19;101770.47;;;23.15;59.64
250;BME280;109;19.806;-70.704;2023-03-01T01:22:46;101774.75;;;23.21;59.17
250;BME280;109;19.806;-70.704;2023-03-01T01:25:19;101775.88;;;23.14;59.32
250;BME280;109;19.806;-70.704;2023-03-01T01:27:45;101777.19;;;23.28;59.13
250;BME280;109;19.806;-70.704;2023-03-01T01:30:19;101776.22;;;23.31;58.97
250;BME280;109;19.806;-70.704;2023-03-01T01:32:46;101772.78;;;23.27;58.97
250;BME280;109;19.806;-70.704;2023-03-01T01:35:19;101777.09;;;23.31;59.32
250;BME280;109;19.806;-70.704;2023-03-01T01:37:45;101775.59;;;23.23;59.21
250;BME280;109;19.806;-70.704;2023-03-01T01:40:19;101771.34;;;23.16;59.31
250;BME280;109;19.806;-70.704;2023-03-01T01:42:46;101771.16;;;23.22;59.23
250;BME280;109;19.806;-70.704;2023-03-01T01:45:34;101769.41;;;23.21;59.40
250;BME280;109;19.806;-70.704;2023-03-01T01:48:13;101771.22;;;23.20;59.30
250;BME280;109;19.806;-70.704;2023-03-01T01:50:57;101765.13;;;23.15;59.46
250;BME280;109;19.806;-70.704;2023-03-01T01:53:31;101764.50;;;23.07;59.54
250;BME280;109;19.806;-70.704;2023-03-01T01:56:00;101764.50;;;23.07;59.52
250;BME280;109;19.806;-70.704;2023-03-01T01:58:34;101760.00;;;23.09;59.47
250;BME280;109;19.806;-70.704;2023-03-01T02:01:02;101763.69;;;23.05;59.60
250;BME280;109;19.806;-70.704;2023-03-01T02:03:39;101760.25;;;23.02;59.48
250;BME280;109;19.806;-70.704;2023-03-01T02:06:33;101759.41;;;22.99;59.42
250;BME280;109;19.806;-70.704;2023-03-01T02:09:14;101768.31;;;23.00;59.77
250;BME280;109;19.806;-70.704;2023-03-01T02:11:48;101760.91;;;23.08;59.63
250;BME280;109;19.806;-70.704;2023-03-01T02:14:15;101755.63;;;23.07;59.49
250;BME280;109;19.806;-70.704;2023-03-01T02:16:49;101749.63;;;23.00;59.51
250;BME280;109;19.806;-70.704;2023-03-01T02:19:35;101752.16;;;23.03;59.51
250;BME280;109;19.806;-70.704;2023-03-01T02:22:31;101755.88;;;22.97;59.70
250;BME280;109;19.806;-70.704;2023-03-01T02:30:50;101743.50;;;22.95;59.08
250;BME280;109;19.806;-70.704;2023-03-01T02:33:44;101740.00;;;22.93;59.49
250;BME280;109;19.806;-70.704;2023-03-01T02:36:19;101741.81;;;22.91;59.50
250;BME280;109;19.806;-70.704;2023-03-01T02:38:56;101747.28;;;22.88;59.60
250;BME280;109;19.806;-70.704;2023-03-01T02:41:37;101752.72;;;22.85;59.53
250;BME280;109;19.806;-70.704;2023-03-01T02:44:25;101743.00;;;22.82;59.44
250;BME280;109;19.806;-70.704;2023-03-01T02:47:05;101747.41;;;22.83;59.19
250;BME280;109;19.806;-70.704;2023-03-01T02:49:34;101738.97;;;22.68;59.42
250;BME280;109;19.806;-70.704;2023-03-01T02:52:30;101746.16;;;22.65;59.05
250;BME280;109;19.806;-70.704;2023-03-01T02:55:08;101745.56;;;22.56;59.61
250;BME280;109;19.806;-70.704;2023-03-01T02:57:37;101740.28;;;22.53;59.18
250;BME280;109;19.806;-70.704;2023-03-01T03:00:17;101744.88;;;22.49;59.20
250;BME280;109;19.806;-70.704;2023-03-01T03:03:01;101741.25;;;22.50;59.18
250;BME280;109;19.806;-70.704;2023-03-01T03:05:35;101737.03;;;22.43;59.51
250;BME280;109;19.806;-70.704;2023-03-01T03:08:03;101732.69;;;22.38;59.11
250;BME280;109;19.806;-70.704;2023-03-01T03:10:39;101733.53;;;22.41;59.50
250;BME280;109;19.806;-70.704;2023-03-01T03:13:14;101732.59;;;22.42;59.49
250;BME280;109;19.806;-70.704;2023-03-01T03:15:43;101741.53;;;22.41;59.64
250;BME280;109;19.806;-70.704;2023-03-01T03:18:17;101727.19;;;22.45;59.48
250;BME280;109;19.806;-70.704;2023-03-01T03:20:45;101732.84;;;22.33;59.27
250;BME280;109;19.806;-70.704;2023-03-01T03:23:20;101728.22;;;22.40;59.14
250;BME280;109;19.806;-70.704;2023-03-01T03:25:50;101724.75;;;22.36;59.29
250;BME280;109;19.806;-70.704;2023-03-01T03:28:23;101717.44;;;22.44;59.29
250;BME280;109;19.806;-70.704;2023-03-01T03:30:50;101727.34;;;22.39;59.12
250;BME280;109;19.806;-70.704;2023-03-01T03:33:23;101722.88;;;22.40;59.09
250;BME280;109;19.806;-70.704;2023-03-01T03:35:50;101724.53;;;22.45;59.13
250;BME280;109;19.806;-70.704;2023-03-01T03:38:23;101718.47;;;22.39;59.17
250;BME280;109;19.806;-70.704;2023-03-01T03:41:08;101714.81;;;22.43;59.03
250;BME280;109;19.806;-70.704;2023-03-01T03:43:42;101715.09;;;22.32;59.27
250;BME280;109;19.806;-70.704;2023-03-01T03:46:29;101714.19;;;22.33;59.71
250;BME280;109;19.806;-70.704;2023-03-01T03:49:02;101706.44;;;22.24;59.62
250;BME280;109;19.806;-70.704;2023-03-01T03:51:29;101704.25;;;22.38;59.57
250;BME280;109;19.806;-70.704;2023-03-01T03:54:02;101693.44;;;22.44;59.49
250;BME280;109;19.806;-70.704;2023-03-01T03:56:28;101692.56;;;22.44;59.51
250;BME280;109;19.806;-70.704;2023-03-01T03:59:09;101689.94;;;22.42;59.60
250;BME280;109;19.806;-70.704;2023-03-01T04:01:44;101689.09;;;22.40;59.76
250;BME280;109;19.806;-70.704;2023-03-01T04:04:11;101681.97;;;22.41;59.77
250;BME280;109;19.806;-70.704;2023-03-01T04:06:44;101690.13;;;22.35;60.02
250;BME280;109;19.806;-70.704;2023-03-01T04:09:10;101685.53;;;22.40;60.13
250;BME280;109;19.806;-70.704;2023-03-01T04:11:43;101677.59;;;22.38;59.81
250;BME280;109;19.806;-70.704;2023-03-01T04:14:09;101683.88;;;22.36;60.10
250;BME280;109;19.806;-70.704;2023-03-01T04:16:43;101686.50;;;22.37;60.29
250;BME280;109;19.806;-70.704;2023-03-01T04:19:09;101691.16;;;22.29;60.24
250;BME280;109;19.806;-70.704;2023-03-01T04:21:43;101686.63;;;22.33;60.01
250;BME280;109;19.806;-70.704;2023-03-01T04:24:09;101669.75;;;22.32;60.25
250;BME280;109;19.806;-70.704;2023-03-01T04:26:43;101665.16;;;22.37;60.37
250;BME280;109;19.806;-70.704;2023-03-01T04:29:10;101664.63;;;22.24;60.03
250;BME280;109;19.806;-70.704;2023-03-01T04:31:43;101663.84;;;22.21;60.42
250;BME280;109;19.806;-70.704;2023-03-01T04:34:09;101673.44;;;22.26;60.11
250;BME280;109;19.806;-70.704;2023-03-01T04:36:42;101668.41;;;22.17;60.29
250;BME280;109;19.806;-70.704;2023-03-01T04:39:08;101671.19;;;22.13;60.16
250;BME280;109;19.806;-70.704;2023-03-01T04:41:44;101669.38;;;22.13;60.47
250;BME280;109;19.806;-70.704;2023-03-01T04:44:17;101661.28;;;22.18;61.06
250;BME280;109;19.806;-70.704;2023-03-01T04:46:51;101662.91;;;22.23;60.68
250;BME280;109;19.806;-70.704;2023-03-01T04:49:31;101652.28;;;22.22;60.52
250;BME280;109;19.806;-70.704;2023-03-01T04:51:58;101648.81;;;22.18;60.63
250;BME280;109;19.806;-70.704;2023-03-01T04:54:35;101655.09;;;22.16;60.70
250;BME280;109;19.806;-70.704;2023-03-01T04:57:02;101652.34;;;22.19;60.66
250;BME280;109;19.806;-70.704;2023-03-01T04:59:36;101648.91;;;22.15;60.97
250;BME280;109;19.806;-70.704;2023-03-01T05:02:02;101642.69;;;22.15;61.27
250;BME280;109;19.806;-70.704;2023-03-01T05:04:35;101642.66;;;22.16;60.49
250;BME280;109;19.806;-70.704;2023-03-01T05:07:01;101633.94;;;22.11;60.69
250;BME280;109;19.806;-70.704;2023-03-01T05:09:35;101637.50;;;22.10;60.59
250;BME280;109;19.806;-70.704;2023-03-01T05:12:02;101633.06;;;22.11;60.76
250;BME280;109;19.806;-70.704;2023-03-01T05:14:35;101642.88;;;22.09;60.55
250;BME280;109;19.806;-70.704;2023-03-01T05:17:01;101644.78;;;22.04;60.09
250;BME280;109;19.806;-70.704;2023-03-01T05:19:36;101624.41;;;22.01;59.63
250;BME280;109;19.806;-70.704;2023-03-01T05:22:09;101621.66;;;22.04;59.54
250;BME280;109;19.806;-70.704;2023-03-01T05:24:43;101615.44;;;22.05;59.35
250;BME280;109;19.806;-70.704;2023-03-01T05:27:09;101613.78;;;22.00;59.24
250;BME280;109;19.806;-70.704;2023-03-01T05:29:43;101602.50;;;21.91;59.48
250;BME280;109;19.806;-70.704;2023-03-01T05:32:09;101604.91;;;21.99;59.33
250;BME280;109;19.806;-70.704;2023-03-01T05:34:48;101597.75;;;22.01;58.64
250;BME280;109;19.806;-70.704;2023-03-01T05:37:14;101593.38;;;21.99;58.85
250;BME280;109;19.806;-70.704;2023-03-01T05:39:48;101591.56;;;22.01;58.97
250;BME280;109;19.806;-70.704;2023-03-01T05:42:16;101581.19;;;21.90;58.48
250;BME280;109;19.806;-70.704;2023-03-01T05:44:56;101584.97;;;21.83;58.78
250;BME280;109;19.806;-70.704;2023-03-01T05:47:35;101584.81;;;21.87;59.13
250;BME280;109;19.806;-70.704;2023-03-01T05:50:02;101583.06;;;21.86;58.81
250;BME280;109;19.806;-70.704;2023-03-01T05:52:35;101577.91;;;21.82;58.80
250;BME280;109;19.806;-70.704;2023-03-01T05:55:01;101579.69;;;21.81;59.35
250;BME280;109;19.806;-70.704;2023-03-01T05:57:34;101583.28;;;21.80;59.13
250;BME280;109;19.806;-70.704;2023-03-01T06:00:01;101586.94;;;21.75;58.95
250;BME280;109;19.806;-70.704;2023-03-01T06:02:38;101581.75;;;21.70;59.16
250;BME280;109;19.806;-70.704;2023-03-01T06:05:13;101571.25;;;21.64;59.42
250;BME280;109;19.806;-70.704;2023-03-01T06:07:41;101577.13;;;21.44;59.81
250;BME280;109;19.806;-70.704;2023-03-01T06:10:14;101576.13;;;21.48;59.80
250;BME280;109;19.806;-70.704;2023-03-01T06:12:42;101572.09;;;21.66;59.65
250;BME280;109;19.806;-70.704;2023-03-01T06:15:16;101565.38;;;21.51;59.90
250;BME280;109;19.806;-70.704;2023-03-01T06:17:44;101553.94;;;21.48;60.22
250;BME280;109;19.806;-70.704;2023-03-01T06:20:20;101565.34;;;21.53;60.19
250;BME280;109;19.806;-70.704;2023-03-01T06:22:47;101557.34;;;21.53;59.74
250;BME280;109;19.806;-70.704;2023-03-01T06:25:23;101561.59;;;21.60;60.11
250;BME280;109;19.806;-70.704;2023-03-01T06:27:50;101557.31;;;21.54;60.15
250;BME280;109;19.806;-70.704;2023-03-01T06:30:26;101559.09;;;21.54;59.66
250;BME280;109;19.806;-70.704;2023-03-01T06:32:53;101559.09;;;21.54;59.38
250;BME280;109;19.806;-70.704;2023-03-01T06:35:34;101556.44;;;21.54;59.91
250;BME280;109;19.806;-70.704;2023-03-01T06:38:08;101549.22;;;21.59;60.15
250;BME280;109;19.806;-70.704;2023-03-01T06:40:41;101552.97;;;21.50;60.10
250;BME280;109;19.806;-70.704;2023-03-01T06:43:07;101555.03;;;21.41;60.34
250;BME280;109;19.806;-70.704;2023-03-01T06:45:41;101550.75;;;21.34;60.27
250;BME280;109;19.806;-70.704;2023-03-01T06:48:21;101540.22;;;21.31;60.31
250;BME280;109;19.806;-70.704;2023-03-01T06:50:47;101543.84;;;21.28;60.39
250;BME280;109;19.806;-70.704;2023-03-01T06:53:21;101545.94;;;21.15;60.49
250;BME280;109;19.806;-70.704;2023-03-01T06:55:53;101540.41;;;21.23;60.12
250;BME280;109;19.806;-70.704;2023-03-01T06:58:26;101537.72;;;21.24;60.60
250;BME280;109;19.806;-70.704;2023-03-01T07:00:52;101542.13;;;21.26;60.36
250;BME280;109;19.806;-70.704;2023-03-01T07:03:25;101549.25;;;21.23;60.13
250;BME280;109;19.806;-70.704;2023-03-01T07:05:52;101536.69;;;21.30;60.21
250;BME280;109;19.806;-70.704;2023-03-01T07:08:25;101540.50;;;21.20;60.02
250;BME280;109;19.806;-70.704;2023-03-01T07:10:58;101541.47;;;21.17;59.90
250;BME280;109;19.806;-70.704;2023-03-01T07:13:31;101537.59;;;21.29;59.95
250;BME280;109;19.806;-70.704;2023-03-01T07:15:58;101534.38;;;21.16;60.34
250;BME280;109;19.806;-70.704;2023-03-01T07:18:31;101531.00;;;21.08;60.08
250;BME280;109;19.806;-70.704;2023-03-01T07:20:58;101540.63;;;21.15;60.01
250;BME280;109;19.806;-70.704;2023-03-01T07:23:31;101538.97;;;21.08;59.65
250;BME280;109;19.806;-70.704;2023-03-01T07:25:58;101541.88;;;20.99;59.84
250;BME280;109;19.806;-70.704;2023-03-01T07:28:31;101534.00;;;20.95;60.29
250;BME280;109;19.806;-70.704;2023-03-01T07:31:08;101534.16;;;20.90;59.80
250;BME280;109;19.806;-70.704;2023-03-01T07:33:34;101530.69;;;20.86;59.94
250;BME280;109;19.806;-70.704;2023-03-01T07:36:07;101540.66;;;20.78;60.56
250;BME280;109;19.806;-70.704;2023-03-01T07:38:43;101535.41;;;20.75;60.50
250;BME280;109;19.806;-70.704;2023-03-01T07:41:16;101539.19;;;20.65;60.52
250;BME280;109;19.806;-70.704;2023-03-01T07:43:43;101534.41;;;20.79;60.06
250;BME280;109;19.806;-70.704;2023-03-01T07:46:16;101541.00;;;20.65;60.29
250;BME280;109;19.806;-70.704;2023-03-01T07:48:56;101536.59;;;20.62;60.57
250;BME280;109;19.806;-70.704;2023-03-01T07:51:24;101522.50;;;20.59;60.64
250;BME280;109;19.806;-70.704;2023-03-01T07:53:57;101528.63;;;20.62;60.55
250;BME280;109;19.806;-70.704;2023-03-01T07:56:23;101529.47;;;20.64;60.66
250;BME280;109;19.806;-70.704;2023-03-01T07:58:56;101531.38;;;20.58;60.70
250;BME280;109;19.806;-70.704;2023-03-01T08:01:25;101532.34;;;20.55;60.75
250;BME280;109;19.806;-70.704;2023-03-01T08:03:58;101535.03;;;20.55;60.73
250;BME280;109;19.806;-70.704;2023-03-01T08:06:25;101534.22;;;20.51;60.76
250;BME280;109;19.806;-70.704;2023-03-01T08:08:58;101536.06;;;20.46;60.70
250;BME280;109;19.806;-70.704;2023-03-01T08:11:25;101536.09;;;20.45;60.81
250;BME280;109;19.806;-70.704;2023-03-01T08:13:58;101537.13;;;20.39;60.77
250;BME280;109;19.806;-70.704;2023-03-01T08:16:25;101540.78;;;20.34;60.97
250;BME280;109;19.806;-70.704;2023-03-01T08:19:07;101539.06;;;20.31;60.93
250;BME280;109;19.806;-70.704;2023-03-01T08:21:40;101546.47;;;20.17;61.09
250;BME280;109;19.806;-70.704;2023-03-01T08:24:07;101546.41;;;20.20;61.20
250;BME280;109;19.806;-70.704;2023-03-01T08:26:42;101549.03;;;20.22;61.20
250;BME280;109;19.806;-70.704;2023-03-01T08:29:09;101552.66;;;20.17;61.04
250;BME280;109;19.806;-70.704;2023-03-01T08:31:42;101560.19;;;19.97;61.56
250;BME280;109;19.806;-70.704;2023-03-01T08:34:11;101563.84;;;19.92;61.82
250;BME280;109;19.806;-70.704;2023-03-01T08:36:52;101563.56;;;20.04;61.65
250;BME280;109;19.806;-70.704;2023-03-01T08:39:25;101564.56;;;20.00;61.63
250;BME280;109;19.806;-70.704;2023-03-01T08:41:52;101566.41;;;19.96;61.54
250;BME280;109;19.806;-70.704;2023-03-01T08:44:25;101568.16;;;19.97;61.44
250;BME280;109;19.806;-70.704;2023-03-01T08:47:14;101567.59;;;19.81;62.15
250;BME280;109;19.806;-70.704;2023-03-01T08:49:46;101577.59;;;19.67;62.32
250;BME280;109;19.806;-70.704;2023-03-01T08:52:12;101587.25;;;19.71;62.18
250;BME280;109;19.806;-70.704;2023-03-01T08:54:47;101586.44;;;19.66;62.51
250;BME280;109;19.806;-70.704;2023-03-01T08:57:14;101588.09;;;19.73;62.06
250;BME280;109;19.806;-70.704;2023-03-01T08:59:47;101593.47;;;19.70;61.99
250;BME280;109;19.806;-70.704;2023-03-01T09:02:17;101591.50;;;19.80;62.04
250;BME280;109;19.806;-70.704;2023-03-01T09:04:50;101596.13;;;19.70;61.63
250;BME280;109;19.806;-70.704;2023-03-01T09:07:17;101601.63;;;19.61;61.99
250;BME280;109;19.806;-70.704;2023-03-01T09:09:50;101600.72;;;19.62;62.14
250;BME280;109;19.806;-70.704;2023-03-01T09:12:19;101605.94;;;19.65;61.94
250;BME280;109;19.806;-70.704;2023-03-01T09:14:52;101602.53;;;19.60;62.21
250;BME280;109;19.806;-70.704;2023-03-01T09:17:19;101603.47;;;19.56;62.14
250;BME280;109;19.806;-70.704;2023-03-01T09:19:53;101613.34;;;19.50;62.14
250;BME280;109;19.806;-70.704;2023-03-01T09:22:20;101608.09;;;19.45;62.19
250;BME280;109;19.806;-70.704;2023-03-01T09:24:53;101611.56;;;19.50;62.41
250;BME280;109;19.806;-70.704;2023-03-01T09:27:28;101611.53;;;19.52;62.21
250;BME280;109;19.806;-70.704;2023-03-01T09:30:02;101614.19;;;19.52;61.97
250;BME280;109;19.806;-70.704;2023-03-01T09:32:30;101615.88;;;19.56;62.08
250;BME280;109;19.806;-70.704;2023-03-01T09:35:05;101624.69;;;19.58;62.09
250;BME280;109;19.806;-70.704;2023-03-01T09:37:35;101625.59;;;19.57;61.81
250;BME280;109;19.806;-70.704;2023-03-01T09:40:21;101624.69;;;19.58;61.70
250;BME280;109;19.806;-70.704;2023-03-01T09:43:06;101627.47;;;19.52;61.82
250;BME280;109;19.806;-70.704;2023-03-01T09:45:56;101630.94;;;19.54;62.16
250;BME280;109;19.806;-70.704;2023-03-01T09:48:41;101619.53;;;19.50;61.85
250;BME280;109;19.806;-70.704;2023-03-01T09:51:32;101632.84;;;19.47;62.01
250;BME280;109;19.806;-70.704;2023-03-01T09:54:06;101627.97;;;19.23;62.34
250;BME280;109;19.806;-70.704;2023-03-01T09:56:44;101626.16;;;19.25;62.24
250;BME280;109;19.806;-70.704;2023-03-01T09:59:46;101632.38;;;19.24;62.35
250;BME280;109;19.806;-70.704;2023-03-01T10:02:48;101632.16;;;19.36;62.21
250;BME280;109;19.806;-70.704;2023-03-01T10:10:58;101643.44;;;19.50;62.08
250;BME280;109;19.806;-70.704;2023-03-01T10:13:29;101647.06;;;19.44;62.13
250;BME280;109;19.806;-70.704;2023-03-01T10:16:28;101652.34;;;19.44;61.95
250;BME280;109;19.806;-70.704;2023-03-01T10:19:06;101655.31;;;19.26;62.45
250;BME280;109;19.806;-70.704;2023-03-01T10:21:51;101657.41;;;19.04;62.59
250;BME280;109;19.806;-70.704;2023-03-01T10:24:27;101658.91;;;19.25;62.13
250;BME280;109;19.806;-70.704;2023-03-01T10:27:26;101671.19;;;19.29;62.47
250;BME280;109;19.806;-70.704;2023-03-01T10:30:17;101674.75;;;19.28;62.47
250;BME280;109;19.806;-70.704;2023-03-01T10:32:53;101679.19;;;19.28;62.22
250;BME280;109;19.806;-70.704;2023-03-01T10:35:23;101674.69;;;19.31;62.10
250;BME280;109;19.806;-70.704;2023-03-01T10:38:06;101684.41;;;19.34;62.32
250;BME280;109;19.806;-70.704;2023-03-01T10:41:00;101685.97;;;19.47;61.78
250;BME280;109;19.806;-70.704;2023-03-01T10:43:54;101690.66;;;19.30;62.18
250;BME280;109;19.806;-70.704;2023-03-01T10:46:41;101687.81;;;19.40;62.20
250;BME280;109;19.806;-70.704;2023-03-01T10:49:20;101690.53;;;19.37;61.79
250;BME280;109;19.806;-70.704;2023-03-01T10:51:54;101698.50;;;19.37;62.22
250;BME280;109;19.806;-70.704;2023-03-01T10:54:27;101700.16;;;19.43;61.84
250;BME280;109;19.806;-70.704;2023-03-01T11:02:51;101697.50;;;19.44;62.58
250;BME280;109;19.806;-70.704;2023-03-01T11:05:32;101708.94;;;19.48;62.53
250;BME280;109;19.806;-70.704;2023-03-01T11:08:01;101715.91;;;19.55;62.50
250;BME280;109;19.806;-70.704;2023-03-01T11:10:35;101715.59;;;19.73;62.10
250;BME280;109;19.806;-70.704;2023-03-01T11:13:16;101726.41;;;19.63;62.81
250;BME280;109;19.806;-70.704;2023-03-01T11:16:00;101721.59;;;19.88;62.27
250;BME280;109;19.806;-70.704;2023-03-01T11:18:27;101732.00;;;19.98;61.95
250;BME280;109;19.806;-70.704;2023-03-01T11:20:55;101737.25;;;20.03;62.07
250;BME280;109;19.806;-70.704;2023-03-01T11:23:22;101745.97;;;20.09;62.01
250;BME280;109;19.806;-70.704;2023-03-01T11:25:56;101750.38;;;20.10;62.26
250;BME280;109;19.806;-70.704;2023-03-01T11:28:24;101759.09;;;20.17;61.93
250;BME280;109;19.806;-70.704;2023-03-01T11:36:28;101771.66;;;20.09;61.15
250;BME280;109;19.806;-70.704;2023-03-01T11:39:05;101771.66;;;20.10;60.96
250;BME280;109;19.806;-70.704;2023-03-01T11:41:40;101775.06;;;20.17;61.16
250;BME280;109;19.806;-70.704;2023-03-01T11:44:30;101776.75;;;20.21;60.93
250;BME280;109;19.806;-70.704;2023-03-01T11:47:42;101780.31;;;20.22;61.11
250;BME280;109;19.806;-70.704;2023-03-01T11:52:58;101784.56;;;20.30;61.05
250;BME280;109;19.806;-70.704;2023-03-01T12:01:38;101793.09;;;20.49;61.04
250;BME280;109;19.806;-70.704;2023-03-01T12:07:01;101806.41;;;20.49;60.56
250;BME280;109;19.806;-70.704;2023-03-01T12:15:06;101804.94;;;20.79;60.63
250;BME280;109;19.806;-70.704;2023-03-01T12:20:43;101802.75;;;20.98;60.38
250;BME280;109;19.806;-70.704;2023-03-01T12:23:26;101814.38;;;20.94;60.46
250;BME280;109;19.806;-70.704;2023-03-01T12:37:52;101812.41;;;21.82;59.18
250;BME280;109;19.806;-70.704;2023-03-01T12:46:33;101822.41;;;22.08;57.33
250;BME280;109;19.806;-70.704;2023-03-01T12:49:13;101829.28;;;22.50;56.92
250;BME280;109;19.806;-70.704;2023-03-01T12:51:44;101833.09;;;22.42;55.65
250;BME280;109;19.806;-70.704;2023-03-01T12:54:29;101829.94;;;22.60;55.48
250;BME280;109;19.806;-70.704;2023-03-01T12:57:27;101829.63;;;22.71;55.59
250;BME280;109;19.806;-70.704;2023-03-01T13:00:32;101832.09;;;23.09;54.57
250;BME280;109;19.806;-70.704;2023-03-01T13:11:06;101850.78;;;23.94;54.18
250;BME280;109;19.806;-70.704;2023-03-01T13:13:38;101852.50;;;23.97;53.77
250;BME280;109;19.806;-70.704;2023-03-01T13:16:22;101852.84;;;24.13;53.89
250;BME280;109;19.806;-70.704;2023-03-01T13:18:49;101851.94;;;24.14;53.62
250;BME280;109;19.806;-70.704;2023-03-01T13:21:30;101864.53;;;24.36;53.91
250;BME280;109;19.806;-70.704;2023-03-01T13:23:57;101859.72;;;24.21;53.77
250;BME280;109;19.806;-70.704;2023-03-01T13:26:23;101858.09;;;24.17;54.12
250;BME280;109;19.806;-70.704;2023-03-01T13:28:57;101861.63;;;24.44;54.18
250;BME280;109;19.806;-70.704;2023-03-01T13:33:56;101862.22;;;24.52;54.13
250;BME280;109;19.806;-70.704;2023-03-01T13:44:31;101869.28;;;24.55;54.07
250;BME280;109;19.806;-70.704;2023-03-01T13:49:51;101879.81;;;24.84;53.75
250;BME280;109;19.806;-70.704;2023-03-01T13:52:48;101885.47;;;25.00;53.46
250;BME280;109;19.806;-70.704;2023-03-01T13:57:49;101888.41;;;24.94;53.80
250;BME280;109;19.806;-70.704;2023-03-01T14:00:30;101879.38;;;24.96;54.22
250;BME280;109;19.806;-70.704;2023-03-01T14:05:31;101889.13;;;25.22;53.28
250;BME280;109;19.806;-70.704;2023-03-01T14:07:57;101889.75;;;25.29;53.34
250;BME280;109;19.806;-70.704;2023-03-01T14:10:52;101890.84;;;25.23;53.00
250;BME280;109;19.806;-70.704;2023-03-01T14:13:38;101896.56;;;25.14;53.82
250;BME280;109;19.806;-70.704;2023-03-01T14:18:55;101902.16;;;25.55;53.07
250;BME280;109;19.806;-70.704;2023-03-01T14:21:24;101897.69;;;25.77;53.11
250;BME280;109;19.806;-70.704;2023-03-01T14:23:52;101895.53;;;25.41;53.04
250;BME280;109;19.806;-70.704;2023-03-01T14:26:22;101903.41;;;25.46;54.03
250;BME280;109;19.806;-70.704;2023-03-01T14:28:49;101894.59;;;25.19;53.50
250;BME280;109;19.806;-70.704;2023-03-01T14:31:34;101888.81;;;25.53;53.93
250;BME280;109;19.806;-70.704;2023-03-01T14:34:01;101893.63;;;25.67;52.34
250;BME280;109;19.806;-70.704;2023-03-01T14:36:30;101894.56;;;25.66;53.32
250;BME280;109;19.806;-70.704;2023-03-01T14:38:57;101890.56;;;25.76;52.20
250;BME280;109;19.806;-70.704;2023-03-01T14:41:33;101886.56;;;26.09;52.80
250;BME280;109;19.806;-70.704;2023-03-01T14:44:07;101886.69;;;25.85;52.46
250;BME280;109;19.806;-70.704;2023-03-01T14:46:40;101888.25;;;26.12;52.78
250;BME280;109;19.806;-70.704;2023-03-01T14:49:20;101897.44;;;25.85;52.57
250;BME280;109;19.806;-70.704;2023-03-01T14:52:00;101897.69;;;26.00;53.43
250;BME280;109;19.806;-70.704;2023-03-01T14:54:39;101907.03;;;25.90;53.65
250;BME280;109;19.806;-70.704;2023-03-01T14:57:25;101898.38;;;25.82;53.14
250;BME280;109;19.806;-70.704;2023-03-01T14:59:54;101895.41;;;25.90;53.62
250;BME280;109;19.806;-70.704;2023-03-01T15:02:24;101899.69;;;25.72;54.10
250;BME280;109;19.806;-70.704;2023-03-01T15:04:54;101879.25;;;25.91;53.80
250;BME280;109;19.806;-70.704;2023-03-01T15:07:26;101872.38;;;26.06;54.12
250;BME280;109;19.806;-70.704;2023-03-01T15:09:54;101882.38;;;26.02;54.62
250;BME280;109;19.806;-70.704;2023-03-01T15:14:58;101881.50;;;26.02;53.72
250;BME280;109;19.806;-70.704;2023-03-01T15:17:33;101872.84;;;25.95;53.68
250;BME280;109;19.806;-70.704;2023-03-01T15:20:22;101869.16;;;25.98;53.24